地図

経路データ

SID SEASON NUMBER BASIN SUBBASIN NAME ISO_TIME NATURE LAT LON WMO_WIND WMO_PRES WMO_AGENCY TRACK_TYPE DIST2LAND LANDFALL IFLAG USA_AGENCY USA_ATCF_ID USA_LAT USA_LON USA_RECORD USA_STATUS USA_WIND USA_PRES USA_SSHS USA_R34_NE USA_R34_SE USA_R34_SW USA_R34_NW USA_R50_NE USA_R50_SE USA_R50_SW USA_R50_NW USA_R64_NE USA_R64_SE USA_R64_SW USA_R64_NW USA_POCI USA_ROCI USA_RMW USA_EYE TOKYO_LAT TOKYO_LON TOKYO_GRADE TOKYO_WIND TOKYO_PRES TOKYO_R50_DIR TOKYO_R50_LONG TOKYO_R50_SHORT TOKYO_R30_DIR TOKYO_R30_LONG TOKYO_R30_SHORT TOKYO_LAND CMA_LAT CMA_LON CMA_CAT CMA_WIND CMA_PRES HKO_LAT HKO_LON HKO_CAT HKO_WIND HKO_PRES NEWDELHI_LAT NEWDELHI_LON NEWDELHI_GRADE NEWDELHI_WIND NEWDELHI_PRES NEWDELHI_CI NEWDELHI_DP NEWDELHI_POCI REUNION_LAT REUNION_LON REUNION_TYPE REUNION_WIND REUNION_PRES REUNION_TNUM REUNION_CI REUNION_RMW REUNION_R34_NE REUNION_R34_SE REUNION_R34_SW REUNION_R34_NW REUNION_R50_NE REUNION_R50_SE REUNION_R50_SW REUNION_R50_NW REUNION_R64_NE REUNION_R64_SE REUNION_R64_SW REUNION_R64_NW BOM_LAT BOM_LON BOM_TYPE BOM_WIND BOM_PRES BOM_TNUM BOM_CI BOM_RMW BOM_R34_NE BOM_R34_SE BOM_R34_SW BOM_R34_NW BOM_R50_NE BOM_R50_SE BOM_R50_SW BOM_R50_NW BOM_R64_NE BOM_R64_SE BOM_R64_SW BOM_R64_NW BOM_ROCI BOM_POCI BOM_EYE BOM_POS_METHOD BOM_PRES_METHOD NADI_LAT NADI_LON NADI_CAT NADI_WIND NADI_PRES WELLINGTON_LAT WELLINGTON_LON WELLINGTON_WIND WELLINGTON_PRES DS824_LAT DS824_LON DS824_STAGE DS824_WIND DS824_PRES TD9636_LAT TD9636_LON TD9636_STAGE TD9636_WIND TD9636_PRES TD9635_LAT TD9635_LON TD9635_WIND TD9635_PRES TD9635_ROCI NEUMANN_LAT NEUMANN_LON NEUMANN_CLASS NEUMANN_WIND NEUMANN_PRES MLC_LAT MLC_LON MLC_CLASS MLC_WIND MLC_PRES USA_GUST BOM_GUST BOM_GUST_PER REUNION_GUST REUNION_GUST_PER USA_SEAHGT USA_SEARAD_NE USA_SEARAD_SE USA_SEARAD_SW USA_SEARAD_NW STORM_SPEED STORM_DIR
1940273N14150 1940 70 WP MM NOT_NAMED 1940-09-29 00:00:00 NR 14.4000 149.900 main 1868 1848 __________O___ -1 14.4000 149.900 3 15 260
1940273N14150 1940 70 WP MM NOT_NAMED 1940-09-29 03:00:00 NR 14.2679 149.126 main 1846 1829 __________P___ -1 14.2679 149.126 3 15 260
1940273N14150 1940 70 WP MM NOT_NAMED 1940-09-29 06:00:00 NR 14.1476 148.371 main 1818 1815 __________P___ -1 14.1476 148.371 3 14 261
1940273N14150 1940 70 WP MM NOT_NAMED 1940-09-29 09:00:00 NR 14.0534 147.657 main 1815 1803 __________P___ -1 14.0534 147.657 3 13 264
1940273N14150 1940 70 WP MM NOT_NAMED 1940-09-29 12:00:00 NR 14.0000 147.000 main 1803 1803 __________O___ -1 14.0000 147.000 4 12 267
1940273N14150 1940 70 WP MM NOT_NAMED 1940-09-29 15:00:00 NR 13.9993 146.414 main 1803 1803 __________P___ -1 13.9993 146.414 4 11 273
1940273N14150 1940 70 WP MM NOT_NAMED 1940-09-29 18:00:00 NR 14.0513 145.883 main 1816 1816 __________P___ -1 14.0513 145.883 4 10 279
1940273N14150 1940 70 WP MM NOT_NAMED 1940-09-29 21:00:00 NR 14.1526 145.385 main 1830 1830 __________P___ -1 14.1526 145.385 4 10 285
1940273N14150 1940 70 WP MM NOT_NAMED 1940-09-30 00:00:00 NR 14.3000 144.900 main 1846 1846 __________O___ -1 14.3000 144.900 4 10 291
1940273N14150 1940 70 WP MM NOT_NAMED 1940-09-30 03:00:00 NR 14.5139 144.402 main 1875 1875 __________P___ -1 14.5139 144.402 4 11 296
1940273N14150 1940 70 WP MM NOT_NAMED 1940-09-30 06:00:00 NR 14.7643 143.908 main 1916 1916 __________P___ -1 14.7643 143.908 4 11 297
1940273N14150 1940 70 WP MM NOT_NAMED 1940-09-30 09:00:00 NR 15.0076 143.411 main 1945 1909 __________P___ -1 15.0076 143.411 4 11 294
1940273N14150 1940 70 WP MM NOT_NAMED 1940-09-30 12:00:00 NR 15.2000 142.900 main 1909 1858 __________O___ -1 15.2000 142.900 4 11 284
1940273N14150 1940 70 WP MM NOT_NAMED 1940-09-30 15:00:00 NR 15.2745 142.339 main 1847 1794 __________P___ -1 15.2745 142.339 4 11 275
1940273N14150 1940 70 WP MM NOT_NAMED 1940-09-30 18:00:00 NR 15.2953 141.769 main 1794 1731 __________P___ -1 15.2953 141.769 4 11 271
1940273N14150 1940 70 WP MM NOT_NAMED 1940-09-30 21:00:00 NR 15.2933 141.214 main 1731 1678 __________P___ -1 15.2933 141.214 4 10 270
1940273N14150 1940 70 WP MM NOT_NAMED 1940-10-01 00:00:00 NR 15.3000 140.700 main 1678 1636 __________O___ -1 15.3000 140.700 4 9 273
1940273N14150 1940 70 WP MM NOT_NAMED 1940-10-01 03:00:00 NR 15.3438 140.249 main 1625 1596 __________P___ -1 15.3438 140.249 4 8 277
1940273N14150 1940 70 WP MM NOT_NAMED 1940-10-01 06:00:00 NR 15.4043 139.840 main 1585 1556 __________P___ -1 15.4043 139.840 4 8 281
1940273N14150 1940 70 WP MM NOT_NAMED 1940-10-01 09:00:00 NR 15.4877 139.461 main 1556 1516 __________P___ -1 15.4877 139.461 4 7 285
1940273N14150 1940 70 WP MM NOT_NAMED 1940-10-01 12:00:00 NR 15.6000 139.100 main 1516 1488 __________O___ -1 15.6000 139.100 4 7 289
1940273N14150 1940 70 WP MM NOT_NAMED 1940-10-01 15:00:00 NR 15.7215 138.747 main 1477 1452 __________P___ -1 15.7215 138.747 4 7 292
1940273N14150 1940 70 WP MM NOT_NAMED 1940-10-01 18:00:00 NR 15.8744 138.407 main 1452 1424 __________P___ -1 15.8744 138.407 4 7 298
1940273N14150 1940 70 WP MM NOT_NAMED 1940-10-01 21:00:00 NR 16.0652 138.063 main 1427 1392 __________P___ -1 16.0652 138.063 4 8 302
1940273N14150 1940 70 WP MM NOT_NAMED 1940-10-02 00:00:00 NR 16.3000 137.700 main 1392 1363 __________O___ -1 16.3000 137.700 4 9 307
1940273N14150 1940 70 WP MM NOT_NAMED 1940-10-02 03:00:00 NR 16.6141 137.309 main 1363 1335 __________P___ -1 16.6141 137.309 4 10 311
1940273N14150 1940 70 WP MM NOT_NAMED 1940-10-02 06:00:00 NR 16.9646 136.896 main 1339 1313 __________P___ -1 16.9646 136.896 4 11 310
1940273N14150 1940 70 WP MM NOT_NAMED 1940-10-02 09:00:00 NR 17.3078 136.459 main 1313 1279 __________P___ -1 17.3078 136.459 4 11 307
1940273N14150 1940 70 WP MM NOT_NAMED 1940-10-02 12:00:00 NR 17.6000 136.000 main 1279 1243 __________O___ -1 17.6000 136.000 4 11 299
1940273N14150 1940 70 WP MM NOT_NAMED 1940-10-02 15:00:00 NR 17.8275 135.493 main 1243 1208 __________P___ -1 17.8275 135.493 4 11 292
1940273N14150 1940 70 WP MM NOT_NAMED 1940-10-02 18:00:00 NR 17.9930 134.970 main 1208 1170 __________P___ -1 17.9930 134.970 4 10 285
1940273N14150 1940 70 WP MM NOT_NAMED 1940-10-02 21:00:00 NR 18.0869 134.462 main 1170 1126 __________P___ -1 18.0869 134.462 4 9 277
1940273N14150 1940 70 WP MM NOT_NAMED 1940-10-03 00:00:00 NR 18.1000 134.000 main 1126 1085 __________O___ -1 18.1000 134.000 4 8 266
1940273N14150 1940 70 WP MM NOT_NAMED 1940-10-03 03:00:00 NR 18.0325 133.620 main 1085 1051 __________P___ -1 18.0325 133.620 4 7 253
1940273N14150 1940 70 WP MM NOT_NAMED 1940-10-03 06:00:00 NR 17.8892 133.289 main 1051 1013 __________P___ -1 17.8892 133.289 4 7 241
1940273N14150 1940 70 WP MM NOT_NAMED 1940-10-03 09:00:00 NR 17.7014 132.989 main 1013 975 __________P___ -1 17.7014 132.989 4 7 235
1940273N14150 1940 70 WP MM NOT_NAMED 1940-10-03 12:00:00 NR 17.5000 132.700 main 975 936 __________O___ -1 17.5000 132.700 4 7 236
1940273N14150 1940 70 WP MM NOT_NAMED 1940-10-03 15:00:00 NR 17.3199 132.385 main 936 897 __________P___ -1 17.3199 132.385 4 7 238
1940273N14150 1940 70 WP MM NOT_NAMED 1940-10-03 18:00:00 NR 17.1349 132.077 main 897 865 __________P___ -1 17.1349 132.077 4 7 238
1940273N14150 1940 70 WP MM NOT_NAMED 1940-10-03 21:00:00 NR 16.9574 131.782 main 865 826 __________P___ -1 16.9574 131.782 4 6 239
1940273N14150 1940 70 WP MM NOT_NAMED 1940-10-04 00:00:00 NR 16.8000 131.500 main 826 802 __________O___ -1 16.8000 131.500 4 6 241
1940273N14150 1940 70 WP MM NOT_NAMED 1940-10-04 03:00:00 NR 16.6741 131.244 main 793 770 __________P___ -1 16.6741 131.244 4 5 244
1940273N14150 1940 70 WP MM NOT_NAMED 1940-10-04 06:00:00 NR 16.5697 131.000 main 770 746 __________P___ -1 16.5697 131.000 4 5 248
1940273N14150 1940 70 WP MM NOT_NAMED 1940-10-04 09:00:00 NR 16.4804 130.756 main 746 712 __________P___ -1 16.4804 130.756 4 5 250
1940273N14150 1940 70 WP MM NOT_NAMED 1940-10-04 12:00:00 NR 16.4000 130.500 main 712 678 __________O___ -1 16.4000 130.500 4 5 253
1940273N14150 1940 70 WP MM NOT_NAMED 1940-10-04 15:00:00 NR 16.3231 130.222 main 678 648 __________P___ -1 16.3231 130.222 4 6 255
1940273N14150 1940 70 WP MM NOT_NAMED 1940-10-04 18:00:00 NR 16.2480 129.925 main 644 615 __________P___ -1 16.2480 129.925 4 6 256
1940273N14150 1940 70 WP MM NOT_NAMED 1940-10-04 21:00:00 NR 16.1739 129.615 main 615 581 __________P___ -1 16.1739 129.615 4 6 256
1940273N14150 1940 70 WP MM NOT_NAMED 1940-10-05 00:00:00 NR 16.1000 129.300 main 581 __________O___ -1 16.1000 129.300 4 6 256

デジタル台風データ・検索

IBTrACS Databaseについて

本データベースは、米国NOAAが公開する1842年以降の世界の熱帯低気圧のベストトラックデータアーカイブInternational Best Track Archive for Climate Stewardship (IBTrACS)を、ウェブで閲覧しやすい形式に変換したものです。

最終更新日:2021-12-01